createdAt,value
2023-05-18T00:00:30.680Z,29.74
2023-05-18T00:01:30.755Z,29.77
2023-05-18T00:02:30.901Z,29.77
2023-05-18T00:03:30.983Z,29.78
2023-05-18T00:04:30.999Z,29.76
2023-05-18T00:05:31.244Z,29.77
2023-05-18T00:06:31.098Z,29.76
2023-05-18T00:07:31.179Z,29.79
2023-05-18T00:08:31.238Z,29.76
2023-05-18T00:09:31.318Z,29.77
2023-05-18T00:10:31.412Z,29.78
2023-05-18T00:11:31.448Z,29.77
2023-05-18T00:12:31.533Z,29.77
2023-05-18T00:13:31.531Z,29.77
2023-05-18T00:14:31.534Z,29.79
2023-05-18T00:15:31.739Z,29.77
2023-05-18T00:16:31.542Z,29.80
2023-05-18T00:17:31.552Z,29.79
2023-05-18T00:18:31.537Z,29.78
2023-05-18T00:19:31.594Z,29.80
2023-05-18T00:20:31.516Z,29.77
2023-05-18T00:21:31.541Z,29.80
2023-05-18T00:22:31.616Z,29.79
2023-05-18T00:23:31.675Z,29.78
2023-05-18T00:24:31.744Z,29.81
2023-05-18T00:25:31.964Z,29.80
2023-05-18T00:26:31.867Z,29.80
2023-05-18T00:27:31.931Z,29.80
2023-05-18T00:28:32.002Z,29.83
2023-05-18T00:29:32.071Z,29.81
2023-05-18T00:30:32.129Z,29.81
2023-05-18T00:31:32.239Z,29.81
2023-05-18T00:32:32.255Z,29.83
2023-05-18T00:33:32.311Z,29.81
2023-05-18T00:34:32.384Z,29.81
2023-05-18T00:35:32.600Z,29.82
2023-05-18T00:36:32.493Z,29.83
2023-05-18T00:37:32.565Z,29.82
2023-05-18T00:38:32.644Z,29.83
2023-05-18T00:39:32.722Z,29.83
2023-05-18T00:40:32.771Z,29.82
2023-05-18T00:41:32.869Z,29.82
2023-05-18T00:42:32.905Z,29.84
2023-05-18T00:43:32.943Z,29.83
2023-05-18T00:44:33.025Z,29.83
2023-05-18T00:45:33.397Z,29.83
2023-05-18T00:46:33.286Z,29.82
2023-05-18T00:47:33.209Z,29.85
2023-05-18T00:48:33.266Z,29.85
2023-05-18T00:49:33.300Z,29.83
2023-05-18T00:50:33.344Z,29.84
2023-05-18T00:51:33.388Z,29.85
2023-05-18T00:52:33.454Z,29.83
2023-05-18T00:53:33.515Z,29.85
2023-05-18T00:54:33.586Z,29.84
2023-05-18T00:55:33.851Z,29.84
2023-05-18T00:56:33.708Z,29.84
2023-05-18T00:57:33.782Z,29.84
2023-05-18T00:58:33.860Z,29.84
2023-05-18T00:59:33.929Z,29.85
2023-05-18T01:00:34.023Z,29.86
2023-05-18T01:01:34.142Z,29.85
2023-05-18T01:02:34.147Z,29.86
2023-05-18T01:03:34.215Z,29.87
2023-05-18T01:04:34.250Z,29.86
2023-05-18T01:05:34.307Z,29.86
2023-05-18T01:06:34.378Z,29.86
2023-05-18T01:07:34.453Z,29.87
2023-05-18T01:08:34.515Z,29.87
2023-05-18T01:09:34.587Z,29.85
2023-05-18T01:10:34.650Z,29.87
2023-05-18T01:11:34.774Z,29.86
2023-05-18T01:12:34.773Z,29.88
2023-05-18T01:13:34.843Z,29.88
2023-05-18T01:14:34.884Z,29.87
2023-05-18T01:15:34.936Z,29.88
2023-05-18T01:16:35.008Z,29.89
2023-05-18T01:17:35.059Z,29.90
2023-05-18T01:18:35.157Z,29.89
2023-05-18T01:19:35.156Z,29.88
2023-05-18T01:20:35.221Z,29.88
2023-05-18T01:21:35.291Z,29.88
2023-05-18T01:22:35.362Z,29.88
2023-05-18T01:23:35.429Z,29.89
2023-05-18T01:24:35.479Z,29.88
2023-05-18T01:25:35.547Z,29.89
2023-05-18T01:26:35.608Z,29.91
2023-05-18T01:27:35.680Z,29.89
2023-05-18T01:28:35.724Z,29.91
2023-05-18T01:29:35.792Z,29.90
2023-05-18T01:30:35.839Z,29.91
2023-05-18T01:31:36.006Z,29.91
2023-05-18T01:32:35.989Z,29.90
2023-05-18T01:33:36.007Z,29.91
2023-05-18T01:34:36.069Z,29.91
2023-05-18T01:35:36.132Z,29.91
2023-05-18T01:36:36.133Z,29.90
2023-05-18T01:37:36.176Z,29.91
2023-05-18T01:38:36.245Z,29.92
2023-05-18T01:39:36.293Z,29.93
2023-05-18T01:40:36.355Z,29.92
2023-05-18T01:41:36.393Z,29.93
2023-05-18T01:42:36.446Z,29.92
2023-05-18T01:43:36.503Z,29.91
2023-05-18T01:44:36.524Z,29.92
2023-05-18T01:45:36.588Z,29.92
2023-05-18T01:46:36.676Z,29.93
2023-05-18T01:47:36.749Z,29.92
2023-05-18T01:48:36.744Z,29.93
2023-05-18T01:49:36.816Z,29.92
2023-05-18T01:50:36.872Z,29.91
2023-05-18T01:51:36.947Z,29.91
2023-05-18T01:52:37.006Z,29.93
2023-05-18T01:53:37.015Z,29.92
2023-05-18T01:54:37.067Z,29.93
2023-05-18T01:55:37.123Z,29.92
2023-05-18T01:56:37.165Z,29.91
2023-05-18T01:57:37.238Z,29.93
2023-05-18T01:58:37.271Z,29.94
2023-05-18T01:59:37.346Z,29.92
2023-05-18T02:00:37.397Z,29.92
2023-05-18T02:01:37.468Z,29.94
2023-05-18T02:02:37.569Z,29.93
2023-05-18T02:03:37.634Z,29.93
2023-05-18T02:04:37.584Z,29.95
2023-05-18T02:05:37.649Z,29.94
2023-05-18T02:06:37.689Z,29.94
2023-05-18T02:07:37.759Z,29.94
2023-05-18T02:08:37.801Z,29.95
2023-05-18T02:09:37.860Z,29.94
2023-05-18T02:10:37.896Z,29.94
2023-05-18T02:11:37.946Z,29.95
2023-05-18T02:12:37.942Z,29.95
2023-05-18T02:13:37.948Z,29.93
2023-05-18T02:14:37.931Z,29.96
2023-05-18T02:15:37.917Z,29.95
2023-05-18T02:16:37.969Z,29.96
2023-05-18T02:17:37.947Z,29.95
2023-05-18T02:18:37.948Z,29.94
2023-05-18T02:19:37.924Z,29.95
2023-05-18T02:20:37.914Z,29.96
2023-05-18T02:21:37.948Z,29.95
2023-05-18T02:22:37.982Z,29.96
2023-05-18T02:23:37.972Z,29.97
2023-05-18T02:24:37.985Z,29.97
2023-05-18T02:25:37.990Z,29.97
2023-05-18T02:26:37.997Z,29.98
2023-05-18T02:27:38.053Z,29.98
2023-05-18T02:28:38.097Z,29.97
2023-05-18T02:29:38.136Z,29.97
2023-05-18T02:30:38.143Z,29.97
2023-05-18T02:31:38.208Z,29.98
2023-05-18T02:32:38.255Z,29.98
2023-05-18T02:33:38.200Z,29.99
2023-05-18T02:34:38.256Z,29.99
2023-05-18T02:35:38.278Z,29.98
2023-05-18T02:36:38.340Z,29.99
2023-05-18T02:37:38.391Z,29.98
2023-05-18T02:38:38.462Z,29.99
2023-05-18T02:39:38.529Z,29.99
2023-05-18T02:40:38.594Z,30.00
2023-05-18T02:41:38.681Z,29.99
2023-05-18T02:42:38.737Z,30.01
2023-05-18T02:43:38.769Z,29.99
2023-05-18T02:44:38.834Z,29.99
2023-05-18T02:45:38.894Z,29.98
2023-05-18T02:46:38.932Z,30.01
2023-05-18T02:47:38.998Z,30.00
2023-05-18T02:48:39.088Z,30.00
2023-05-18T02:49:39.123Z,29.99
2023-05-18T02:50:39.191Z,30.00
2023-05-18T02:51:39.225Z,30.01
2023-05-18T02:52:39.267Z,29.98
2023-05-18T02:53:39.328Z,29.99
2023-05-18T02:54:39.396Z,29.99
2023-05-18T02:55:39.440Z,29.99
2023-05-18T02:56:39.508Z,30.00
2023-05-18T02:57:39.587Z,30.01
2023-05-18T02:58:39.657Z,30.00
2023-05-18T02:59:39.729Z,29.99
2023-05-18T03:00:39.784Z,30.01
2023-05-18T03:01:39.983Z,30.01
2023-05-18T03:02:40.010Z,29.97
2023-05-18T03:03:40.024Z,29.97
2023-05-18T03:04:40.066Z,29.84
2023-05-18T03:05:40.142Z,29.45
2023-05-18T03:06:40.196Z,28.97
2023-05-18T03:07:40.206Z,28.90
2023-05-18T03:08:40.254Z,28.58
2023-05-18T03:09:40.321Z,28.49
2023-05-18T03:10:40.326Z,28.32
2023-05-18T03:11:40.362Z,28.25
2023-05-18T03:12:40.405Z,28.26
2023-05-18T03:13:40.464Z,28.19
2023-05-18T03:14:40.483Z,28.01
2023-05-18T03:15:40.551Z,27.99
2023-05-18T03:16:40.600Z,27.91
2023-05-18T03:17:40.558Z,27.87
2023-05-18T03:18:40.587Z,27.86
2023-05-18T03:19:40.550Z,27.70
2023-05-18T03:20:40.544Z,27.68
2023-05-18T03:21:40.547Z,27.65
2023-05-18T03:22:40.545Z,27.65
2023-05-18T03:23:40.567Z,27.62
2023-05-18T03:24:40.770Z,27.54
2023-05-18T03:25:40.550Z,27.58
2023-05-18T03:26:40.564Z,27.61
2023-05-18T03:27:40.553Z,27.55
2023-05-18T03:28:40.560Z,27.43
2023-05-18T03:29:40.568Z,27.48
2023-05-18T03:30:40.565Z,27.46
2023-05-18T03:31:40.594Z,27.48
2023-05-18T03:32:40.668Z,27.47
2023-05-18T03:33:40.587Z,27.44
2023-05-18T03:34:40.597Z,27.49
2023-05-18T03:35:40.594Z,27.43
2023-05-18T03:36:40.592Z,27.43
2023-05-18T03:37:40.624Z,27.44
2023-05-18T03:38:40.659Z,27.45
2023-05-18T03:39:40.676Z,27.40
2023-05-18T03:40:40.708Z,27.38
2023-05-18T03:41:40.738Z,27.38
2023-05-18T03:42:40.772Z,27.37
2023-05-18T03:43:40.801Z,27.39
2023-05-18T03:44:40.846Z,27.40
2023-05-18T03:45:40.862Z,27.42
2023-05-18T03:46:40.904Z,27.41
2023-05-18T03:47:40.962Z,27.40
2023-05-18T03:48:41.070Z,27.40
2023-05-18T03:49:41.014Z,27.39
2023-05-18T03:50:41.045Z,27.39
2023-05-18T03:51:41.086Z,27.38
2023-05-18T03:52:41.128Z,27.36
2023-05-18T03:53:41.165Z,27.39
2023-05-18T03:54:41.230Z,27.46
2023-05-18T03:55:41.255Z,27.41
2023-05-18T03:56:41.310Z,27.40
2023-05-18T03:57:41.342Z,27.38
2023-05-18T03:58:41.403Z,27.37
2023-05-18T03:59:41.448Z,27.37
2023-05-18T04:00:41.499Z,27.42
2023-05-18T04:01:41.604Z,27.43
2023-05-18T04:02:41.660Z,27.38
2023-05-18T04:03:41.790Z,27.45
2023-05-18T04:04:41.720Z,27.50
2023-05-18T04:05:41.762Z,27.50
2023-05-18T04:06:41.819Z,27.37
2023-05-18T04:07:41.862Z,27.42
2023-05-18T04:08:41.927Z,27.45
2023-05-18T04:09:41.982Z,27.39
2023-05-18T04:10:42.048Z,27.45
2023-05-18T04:11:42.094Z,27.39
2023-05-18T04:12:42.154Z,27.46
2023-05-18T04:13:42.227Z,27.45
2023-05-18T04:14:42.314Z,27.48
2023-05-18T04:15:42.259Z,27.45
2023-05-18T04:16:42.273Z,27.41
2023-05-18T04:17:42.275Z,27.48
2023-05-18T04:18:42.332Z,27.45
2023-05-18T04:19:42.233Z,27.53
2023-05-18T04:20:42.277Z,27.51
2023-05-18T04:21:42.231Z,27.44
2023-05-18T04:22:42.241Z,27.48
2023-05-18T04:23:42.277Z,27.48
2023-05-18T04:24:42.306Z,27.53
2023-05-18T04:25:42.376Z,27.48
2023-05-18T04:26:42.437Z,27.49
2023-05-18T04:27:42.502Z,27.54
2023-05-18T04:28:42.571Z,27.56
2023-05-18T04:29:42.635Z,27.51
2023-05-18T04:30:42.717Z,27.53
2023-05-18T04:31:42.854Z,27.51
2023-05-18T04:32:43.270Z,27.53
2023-05-18T04:33:42.924Z,27.55
2023-05-18T04:34:43.002Z,27.50
2023-05-18T04:35:43.065Z,27.52
2023-05-18T04:36:43.135Z,27.52
2023-05-18T04:37:43.367Z,27.66
2023-05-18T04:38:43.277Z,27.65
2023-05-18T04:39:43.351Z,27.57
2023-05-18T04:40:43.439Z,27.63
2023-05-18T04:41:43.484Z,27.59
2023-05-18T04:42:43.516Z,27.57
2023-05-18T04:43:43.593Z,27.65
2023-05-18T04:44:43.666Z,27.73
2023-05-18T04:45:43.773Z,27.62
2023-05-18T04:46:43.778Z,27.62
2023-05-18T04:47:43.840Z,27.62
2023-05-18T04:48:43.908Z,27.57
2023-05-18T04:49:43.977Z,27.60
2023-05-18T04:50:43.984Z,27.59
2023-05-18T04:51:43.982Z,27.53
2023-05-18T04:52:43.981Z,27.55
2023-05-18T04:53:43.989Z,27.49
2023-05-18T04:54:43.991Z,27.52
2023-05-18T04:55:43.996Z,27.54
2023-05-18T04:56:44.001Z,27.56
2023-05-18T04:57:44.064Z,27.53
2023-05-18T04:58:44.044Z,27.57
2023-05-18T04:59:44.088Z,27.56
2023-05-18T05:00:44.113Z,27.60
2023-05-18T05:01:44.232Z,27.57
2023-05-18T05:02:44.395Z,27.57
2023-05-18T05:03:44.485Z,27.59
2023-05-18T05:04:44.289Z,27.56
2023-05-18T05:05:44.327Z,27.59
2023-05-18T05:06:44.365Z,27.65
2023-05-18T05:07:44.391Z,27.63
2023-05-18T05:08:44.430Z,27.57
2023-05-18T05:09:44.479Z,27.56
2023-05-18T05:10:44.516Z,27.51
2023-05-18T05:11:44.562Z,27.62
2023-05-18T05:12:44.637Z,27.60
2023-05-18T05:13:44.709Z,27.51
2023-05-18T05:14:44.828Z,27.61
2023-05-18T05:15:44.860Z,27.54
2023-05-18T05:16:44.916Z,27.62
2023-05-18T05:17:44.989Z,27.60
2023-05-18T05:18:47.197Z,27.59
2023-05-18T05:19:45.036Z,27.49
2023-05-18T05:20:45.024Z,27.55
2023-05-18T05:21:45.025Z,27.54
2023-05-18T05:22:45.115Z,27.55
2023-05-18T05:23:45.055Z,27.52
2023-05-18T05:24:45.116Z,27.51
2023-05-18T05:25:45.065Z,27.55
2023-05-18T05:26:45.070Z,27.53
2023-05-18T05:27:45.092Z,27.56
2023-05-18T05:28:45.108Z,27.52
2023-05-18T05:29:45.188Z,27.53
2023-05-18T05:30:45.232Z,27.48
2023-05-18T05:31:45.305Z,27.52
2023-05-18T05:32:45.368Z,27.56
2023-05-18T05:33:45.366Z,27.56
2023-05-18T05:34:45.391Z,27.51
2023-05-18T05:35:45.329Z,27.56
2023-05-18T05:36:45.386Z,27.51
2023-05-18T05:37:45.402Z,27.45
2023-05-18T05:38:45.386Z,27.47
2023-05-18T05:39:45.391Z,27.48
2023-05-18T05:40:45.422Z,27.55
2023-05-18T05:41:45.403Z,27.46
2023-05-18T05:42:45.428Z,27.47
2023-05-18T05:43:45.494Z,27.47
2023-05-18T05:44:45.545Z,27.48
2023-05-18T05:45:45.616Z,27.44
2023-05-18T05:46:45.697Z,27.47
2023-05-18T05:47:45.784Z,27.48
2023-05-18T05:48:45.794Z,27.49
2023-05-18T05:49:45.829Z,27.38
2023-05-18T05:50:45.905Z,27.48
2023-05-18T05:51:45.930Z,27.46
2023-05-18T05:52:45.988Z,27.52
2023-05-18T05:53:46.031Z,27.55
2023-05-18T05:54:46.075Z,27.48
2023-05-18T05:55:46.135Z,27.51
2023-05-18T05:56:46.204Z,27.52
2023-05-18T05:57:46.272Z,27.47
2023-05-18T05:58:46.328Z,27.52
2023-05-18T05:59:46.389Z,27.40
2023-05-18T06:00:46.427Z,27.49
2023-05-18T06:01:46.514Z,27.44
2023-05-18T06:02:46.564Z,27.37
2023-05-18T06:03:46.614Z,27.48
2023-05-18T06:04:46.638Z,27.48
2023-05-18T06:05:46.694Z,27.41
2023-05-18T06:06:46.751Z,27.40
2023-05-18T06:07:46.820Z,27.41
2023-05-18T06:08:46.875Z,27.47
2023-05-18T06:09:46.919Z,27.42
2023-05-18T06:10:46.955Z,27.45
2023-05-18T06:11:46.990Z,27.47
2023-05-18T06:12:47.023Z,27.49
2023-05-18T06:13:47.060Z,27.44
2023-05-18T06:14:47.125Z,27.45
2023-05-18T06:15:47.170Z,27.43
2023-05-18T06:16:47.258Z,27.44
2023-05-18T06:17:47.363Z,27.38
2023-05-18T06:18:47.311Z,27.39
2023-05-18T06:19:47.353Z,27.43
2023-05-18T06:20:47.432Z,27.36
2023-05-18T06:21:47.432Z,27.44
2023-05-18T06:22:47.479Z,27.39
2023-05-18T06:23:47.537Z,27.34
2023-05-18T06:24:47.565Z,27.37
2023-05-18T06:25:47.578Z,27.37
2023-05-18T06:26:47.622Z,27.38
2023-05-18T06:27:47.630Z,27.34
2023-05-18T06:28:47.661Z,27.32
2023-05-18T06:29:47.664Z,27.30
2023-05-18T06:30:47.677Z,27.36
2023-05-18T06:31:47.719Z,27.40
2023-05-18T06:32:47.719Z,27.40
2023-05-18T06:33:47.726Z,27.28
2023-05-18T06:34:47.783Z,27.39
2023-05-18T06:35:47.825Z,27.36
2023-05-18T06:36:47.851Z,27.38
2023-05-18T06:37:47.891Z,27.42
2023-05-18T06:38:47.934Z,27.37
2023-05-18T06:39:47.985Z,27.40
2023-05-18T06:40:48.022Z,27.40
2023-05-18T06:41:48.061Z,27.40
2023-05-18T06:42:48.129Z,27.41
2023-05-18T06:43:48.164Z,27.41
2023-05-18T06:44:48.205Z,27.39
2023-05-18T06:45:48.273Z,27.36
2023-05-18T06:46:48.275Z,27.39
2023-05-18T06:47:48.323Z,27.41
2023-05-18T06:48:48.368Z,27.37
2023-05-18T06:49:48.395Z,27.36
2023-05-18T06:50:48.442Z,27.34
2023-05-18T06:51:48.484Z,27.40
2023-05-18T06:52:48.508Z,27.45
2023-05-18T06:53:48.560Z,27.37
2023-05-18T06:54:48.595Z,27.41
2023-05-18T06:55:48.657Z,27.42
2023-05-18T06:56:48.668Z,27.39
2023-05-18T06:57:48.705Z,27.44
2023-05-18T06:58:48.761Z,27.41
2023-05-18T06:59:48.809Z,27.47
2023-05-18T07:00:48.810Z,27.44
2023-05-18T07:01:48.901Z,27.36
2023-05-18T07:02:48.955Z,27.38
2023-05-18T07:03:49.004Z,27.33
2023-05-18T07:04:49.033Z,27.35
2023-05-18T07:05:49.078Z,27.33
2023-05-18T07:06:49.138Z,27.36
2023-05-18T07:07:49.268Z,27.33
2023-05-18T07:08:49.242Z,27.37
2023-05-18T07:09:49.308Z,27.35
2023-05-18T07:10:49.339Z,27.37
2023-05-18T07:11:49.412Z,27.36
2023-05-18T07:12:49.452Z,27.35
2023-05-18T07:13:49.476Z,27.39
2023-05-18T07:14:49.521Z,27.31
2023-05-18T07:15:49.590Z,27.32
2023-05-18T07:16:49.589Z,27.35
2023-05-18T07:17:49.639Z,27.32
2023-05-18T07:18:49.708Z,27.28
2023-05-18T07:19:49.711Z,27.29
2023-05-18T07:20:49.772Z,27.27
2023-05-18T07:21:49.861Z,27.26
2023-05-18T07:22:49.870Z,27.30
2023-05-18T07:23:49.935Z,27.28
2023-05-18T07:24:49.982Z,27.33
2023-05-18T07:25:50.011Z,27.32
2023-05-18T07:26:50.062Z,27.33
2023-05-18T07:27:50.119Z,27.30
2023-05-18T07:28:50.182Z,27.31
2023-05-18T07:29:50.256Z,27.34
2023-05-18T07:30:50.349Z,27.31
2023-05-18T07:31:50.428Z,27.27
2023-05-18T07:32:50.463Z,27.25
2023-05-18T07:33:50.485Z,27.30
2023-05-18T07:34:50.488Z,27.36
2023-05-18T07:35:50.487Z,27.25
2023-05-18T07:36:50.505Z,27.28
2023-05-18T07:37:50.494Z,27.25
2023-05-18T07:38:51.124Z,27.26
2023-05-18T07:39:50.516Z,27.19
2023-05-18T07:40:50.515Z,27.15
2023-05-18T07:41:50.535Z,27.17
2023-05-18T07:42:50.513Z,27.17
2023-05-18T07:43:50.536Z,27.22
2023-05-18T07:44:50.572Z,27.13
2023-05-18T07:45:50.632Z,27.13
2023-05-18T07:46:50.771Z,27.16
2023-05-18T07:47:50.813Z,27.09
2023-05-18T07:48:50.868Z,27.06
2023-05-18T07:49:50.952Z,27.07
2023-05-18T07:50:51.043Z,27.04
2023-05-18T07:51:51.092Z,27.04
2023-05-18T07:52:51.053Z,27.04
2023-05-18T07:53:51.064Z,27.04
2023-05-18T07:54:51.070Z,27.05
2023-05-18T07:55:51.084Z,27.01
2023-05-18T07:56:51.081Z,26.97
2023-05-18T07:57:51.085Z,27.01
2023-05-18T07:58:51.107Z,26.98
2023-05-18T07:59:51.117Z,26.90
2023-05-18T08:00:51.179Z,26.93
2023-05-18T08:01:51.235Z,26.90
2023-05-18T08:02:51.406Z,26.92
2023-05-18T08:03:51.421Z,26.95
2023-05-18T08:04:51.388Z,26.97
2023-05-18T08:05:51.437Z,26.86
2023-05-18T08:06:51.460Z,26.91
2023-05-18T08:07:51.532Z,26.94
2023-05-18T08:08:51.530Z,26.90
2023-05-18T08:09:51.632Z,26.93
2023-05-18T08:10:51.687Z,26.89
2023-05-18T08:11:51.730Z,26.88
2023-05-18T08:12:51.774Z,26.99
2023-05-18T08:13:51.844Z,26.92
2023-05-18T08:14:51.846Z,26.98
2023-05-18T08:16:03.163Z,26.94
2023-05-18T08:16:53.115Z,26.91
2023-05-18T08:17:51.910Z,26.99
2023-05-18T08:18:51.908Z,26.90
2023-05-18T08:19:51.854Z,26.95
2023-05-18T08:20:51.857Z,26.97
2023-05-18T08:21:51.907Z,26.92
2023-05-18T08:22:51.856Z,26.94
2023-05-18T08:23:51.867Z,26.96
2023-05-18T08:24:51.852Z,26.91
2023-05-18T08:25:51.899Z,26.87
2023-05-18T08:26:51.957Z,26.86
2023-05-18T08:27:51.993Z,26.73
2023-05-18T08:28:52.076Z,26.73
2023-05-18T08:29:52.138Z,26.69
2023-05-18T08:30:52.208Z,26.69
2023-05-18T08:31:52.361Z,26.69
2023-05-18T08:32:52.335Z,26.67
2023-05-18T08:33:52.381Z,26.65
2023-05-18T08:34:52.455Z,26.65
2023-05-18T08:35:52.500Z,26.69
2023-05-18T08:36:52.547Z,26.64
2023-05-18T08:37:52.598Z,26.57
2023-05-18T08:38:52.665Z,26.64
2023-05-18T08:39:52.735Z,26.54
2023-05-18T08:40:52.792Z,26.62
2023-05-18T08:41:52.866Z,26.58
2023-05-18T08:42:52.936Z,26.63
2023-05-18T08:43:53.007Z,26.54
2023-05-18T08:44:53.180Z,26.42
2023-05-18T08:45:53.155Z,26.50
2023-05-18T08:46:53.191Z,26.45
2023-05-18T08:47:53.319Z,26.42
2023-05-18T08:48:53.535Z,26.50
2023-05-18T08:49:53.414Z,26.48
2023-05-18T08:50:53.461Z,26.47
2023-05-18T08:51:53.538Z,26.43
2023-05-18T08:52:53.610Z,26.43
2023-05-18T08:53:53.699Z,26.47
2023-05-18T08:54:53.753Z,26.41
2023-05-18T08:55:53.814Z,26.49
2023-05-18T08:56:53.896Z,26.53
2023-05-18T08:57:53.956Z,26.53
2023-05-18T08:58:54.021Z,26.49
2023-05-18T08:59:54.120Z,26.54
2023-05-18T09:00:54.179Z,26.47
2023-05-18T09:01:54.290Z,26.46
2023-05-18T09:02:54.358Z,26.52
2023-05-18T09:03:54.322Z,26.48
2023-05-18T09:04:54.353Z,26.52
2023-05-18T09:05:54.350Z,26.57
2023-05-18T09:06:54.345Z,26.53
2023-05-18T09:07:54.363Z,26.72
2023-05-18T09:08:54.349Z,26.73
2023-05-18T09:09:54.371Z,26.70
2023-05-18T09:10:54.374Z,26.59
2023-05-18T09:11:54.409Z,26.52
2023-05-18T09:12:54.393Z,26.49
2023-05-18T09:13:54.486Z,26.46
2023-05-18T09:14:54.496Z,26.47
2023-05-18T09:15:54.577Z,26.45
2023-05-18T09:16:54.631Z,26.43
2023-05-18T09:17:54.721Z,26.43
2023-05-18T09:18:54.763Z,26.41
2023-05-18T09:19:54.811Z,26.41
2023-05-18T09:20:54.884Z,26.41
2023-05-18T09:21:54.938Z,26.39
2023-05-18T09:22:54.967Z,26.38
2023-05-18T09:23:55.036Z,26.38
2023-05-18T09:24:55.066Z,26.39
2023-05-18T09:25:55.149Z,26.39
2023-05-18T09:26:55.149Z,26.40
2023-05-18T09:27:55.209Z,26.40
2023-05-18T09:28:55.246Z,26.42
2023-05-18T09:29:55.311Z,26.43
2023-05-18T09:30:55.347Z,26.44
2023-05-18T09:31:55.466Z,26.39
2023-05-18T09:32:55.514Z,26.42
2023-05-18T09:33:55.469Z,26.44
2023-05-18T09:34:55.490Z,26.43
2023-05-18T09:35:55.532Z,26.44
2023-05-18T09:36:55.559Z,26.42
2023-05-18T09:37:55.603Z,26.42
2023-05-18T09:38:55.635Z,26.43
2023-05-18T09:39:55.665Z,26.43
2023-05-18T09:40:55.704Z,26.43
2023-05-18T09:41:55.732Z,26.45
2023-05-18T09:42:55.752Z,26.42
2023-05-18T09:43:55.803Z,26.46
2023-05-18T09:44:55.851Z,26.44
2023-05-18T09:45:55.843Z,26.46
2023-05-18T09:46:55.886Z,26.46
2023-05-18T09:47:55.909Z,26.45
2023-05-18T09:48:55.896Z,26.49
2023-05-18T09:49:55.925Z,26.47
2023-05-18T09:50:55.966Z,26.48
2023-05-18T09:51:55.935Z,26.47
2023-05-18T09:52:55.936Z,26.50
2023-05-18T09:53:55.938Z,26.49
2023-05-18T09:54:55.928Z,26.51
2023-05-18T09:55:55.942Z,26.49
2023-05-18T09:57:08.881Z,26.51
2023-05-18T09:57:56.926Z,26.52
2023-05-18T09:58:55.930Z,26.53
2023-05-18T09:59:55.927Z,26.50
2023-05-18T10:00:55.966Z,26.50
2023-05-18T10:01:55.966Z,26.51
2023-05-18T10:02:55.960Z,26.51
2023-05-18T10:03:55.969Z,26.50
2023-05-18T10:04:55.951Z,26.51
2023-05-18T10:05:55.962Z,26.52
2023-05-18T10:06:55.925Z,26.53
2023-05-18T10:07:55.921Z,26.55
2023-05-18T10:08:55.919Z,26.56
2023-05-18T10:09:55.924Z,26.56
2023-05-18T10:10:55.927Z,26.56
2023-05-18T10:11:55.933Z,26.57
2023-05-18T10:12:55.910Z,26.56
2023-05-18T10:13:55.979Z,26.53
2023-05-18T10:14:55.913Z,26.55
2023-05-18T10:15:55.950Z,26.56
2023-05-18T10:17:07.217Z,26.55
2023-05-18T10:17:56.987Z,26.57
2023-05-18T10:18:56.023Z,26.56
2023-05-18T10:19:55.953Z,26.57
2023-05-18T10:20:57.252Z,26.55
2023-05-18T10:21:56.119Z,26.59
2023-05-18T10:22:56.130Z,26.60
2023-05-18T10:23:56.168Z,26.59
2023-05-18T10:24:56.208Z,26.60
2023-05-18T10:25:56.268Z,26.59
2023-05-18T10:26:57.665Z,26.60
2023-05-18T10:27:56.304Z,26.61
2023-05-18T10:28:56.302Z,26.61
2023-05-18T10:29:56.311Z,26.61
2023-05-18T10:30:56.339Z,26.62
2023-05-18T10:31:56.308Z,26.61
2023-05-18T10:32:56.370Z,26.63
2023-05-18T10:33:56.315Z,26.65
2023-05-18T10:34:56.342Z,26.63
2023-05-18T10:35:56.348Z,26.65
2023-05-18T10:36:56.394Z,26.65
2023-05-18T10:37:56.459Z,26.64
2023-05-18T10:38:56.529Z,26.63
2023-05-18T10:39:56.602Z,26.62
2023-05-18T10:40:56.675Z,26.63
2023-05-18T10:41:56.747Z,26.64
2023-05-18T10:42:56.825Z,26.64
2023-05-18T10:43:56.879Z,26.64
2023-05-18T10:44:56.941Z,26.65
2023-05-18T10:45:57.886Z,26.66
2023-05-18T10:46:57.129Z,26.67
2023-05-18T10:47:57.256Z,26.67
2023-05-18T10:48:57.193Z,26.68
2023-05-18T10:49:57.294Z,26.67
2023-05-18T10:50:57.325Z,26.67
2023-05-18T10:51:57.377Z,26.67
2023-05-18T10:52:57.442Z,26.68
2023-05-18T10:53:57.509Z,26.68
2023-05-18T10:54:57.569Z,26.69
2023-05-18T10:55:57.634Z,26.68
2023-05-18T10:56:57.681Z,26.68
2023-05-18T10:57:57.731Z,26.70
2023-05-18T10:58:57.794Z,26.71
2023-05-18T10:59:57.854Z,26.70
2023-05-18T11:00:57.999Z,26.70
2023-05-18T11:01:58.022Z,26.71
2023-05-18T11:02:58.065Z,26.71
2023-05-18T11:03:58.074Z,26.70
2023-05-18T11:04:58.211Z,26.73
2023-05-18T11:05:58.291Z,26.72
2023-05-18T11:06:58.246Z,26.74
2023-05-18T11:07:58.311Z,26.73
2023-05-18T11:08:58.352Z,26.73
2023-05-18T11:09:58.409Z,26.74
2023-05-18T11:10:58.461Z,26.73
2023-05-18T11:11:58.502Z,26.73
2023-05-18T11:12:58.558Z,26.75
2023-05-18T11:13:58.599Z,26.75
2023-05-18T11:14:58.662Z,26.77
2023-05-18T11:15:58.747Z,26.84
2023-05-18T11:16:58.789Z,26.86
2023-05-18T11:17:58.848Z,26.89
2023-05-18T11:18:58.854Z,26.93
2023-05-18T11:19:58.879Z,26.95
2023-05-18T11:20:58.936Z,26.96
2023-05-18T11:21:58.975Z,27.02
2023-05-18T11:22:59.032Z,27.04
2023-05-18T11:23:59.043Z,27.10
2023-05-18T11:24:59.097Z,27.01
2023-05-18T11:25:59.125Z,27.07
2023-05-18T11:26:59.173Z,27.08
2023-05-18T11:27:59.203Z,27.07
2023-05-18T11:28:59.230Z,27.10
2023-05-18T11:30:14.074Z,27.00
2023-05-18T11:30:59.273Z,26.93
2023-05-18T11:31:59.298Z,26.92
2023-05-18T11:32:59.397Z,26.91
2023-05-18T11:33:59.355Z,26.87
2023-05-18T11:34:59.252Z,26.89
2023-05-18T11:35:59.236Z,26.87
2023-05-18T11:36:59.278Z,26.86
2023-05-18T11:37:59.198Z,26.86
2023-05-18T11:38:59.199Z,26.86
2023-05-18T11:40:01.246Z,26.85
2023-05-18T11:40:59.184Z,26.87
2023-05-18T11:41:59.182Z,26.86
2023-05-18T11:42:59.193Z,26.88
2023-05-18T11:43:59.162Z,26.88
2023-05-18T11:44:59.171Z,26.86
2023-05-18T11:45:59.605Z,26.84
2023-05-18T11:46:59.172Z,26.85
2023-05-18T11:47:59.243Z,26.86
2023-05-18T11:48:59.141Z,26.86
2023-05-18T11:49:59.127Z,26.85
2023-05-18T11:50:59.196Z,26.84
2023-05-18T11:51:59.239Z,26.87
2023-05-18T11:52:59.120Z,26.85
2023-05-18T11:53:59.061Z,26.86
2023-05-18T11:54:59.074Z,26.86
2023-05-18T11:55:59.056Z,26.88
2023-05-18T11:56:59.052Z,26.84
2023-05-18T11:57:59.036Z,26.87
2023-05-18T11:58:59.017Z,26.87
2023-05-18T11:59:59.004Z,26.88
2023-05-18T12:00:59.010Z,26.88
2023-05-18T12:01:59.022Z,26.85
2023-05-18T12:02:59.103Z,26.87
2023-05-18T12:03:59.047Z,26.90
2023-05-18T12:04:58.978Z,26.91
2023-05-18T12:05:58.972Z,26.91
2023-05-18T12:06:58.949Z,26.91
2023-05-18T12:07:58.937Z,26.92
2023-05-18T12:08:59.299Z,26.91
2023-05-18T12:09:58.918Z,26.92
2023-05-18T12:10:58.908Z,26.93
2023-05-18T12:11:58.895Z,26.91
2023-05-18T12:12:58.908Z,26.95
2023-05-18T12:13:58.889Z,26.94
2023-05-18T12:14:58.896Z,26.93
2023-05-18T12:15:59.255Z,26.95
2023-05-18T12:16:58.911Z,26.95
2023-05-18T12:17:58.948Z,26.95
2023-05-18T12:18:58.887Z,26.95
2023-05-18T12:19:58.887Z,26.95
2023-05-18T12:20:58.832Z,26.96
2023-05-18T12:21:59.139Z,26.97
2023-05-18T12:22:58.837Z,26.96
2023-05-18T12:23:58.814Z,26.97
2023-05-18T12:24:58.798Z,26.98
2023-05-18T12:25:58.802Z,26.99
2023-05-18T12:26:58.789Z,27.00
2023-05-18T12:27:58.777Z,26.98
2023-05-18T12:28:58.812Z,27.00
2023-05-18T12:29:58.754Z,26.99
2023-05-18T12:30:58.759Z,26.97
2023-05-18T12:31:58.747Z,27.00
2023-05-18T12:32:58.849Z,27.00
2023-05-18T12:33:59.455Z,27.02
2023-05-18T12:34:58.712Z,27.01
2023-05-18T12:35:58.716Z,27.01
2023-05-18T12:36:58.706Z,26.99
2023-05-18T12:37:58.690Z,27.00
2023-05-18T12:38:58.684Z,27.01
2023-05-18T12:39:58.686Z,27.01
2023-05-18T12:40:58.698Z,27.03
2023-05-18T12:41:58.672Z,27.03
2023-05-18T12:42:58.656Z,27.03
2023-05-18T12:43:58.660Z,27.03
2023-05-18T12:44:58.646Z,27.03
2023-05-18T12:45:58.689Z,27.05
2023-05-18T12:46:58.706Z,27.04
2023-05-18T12:47:58.743Z,27.05
2023-05-18T12:48:58.708Z,27.03
2023-05-18T12:49:58.702Z,27.05
2023-05-18T12:50:58.738Z,27.05
2023-05-18T12:51:58.741Z,27.07
2023-05-18T12:52:58.766Z,27.04